createdAt,value
2019-03-11T00:01:32.503Z,14.70
2019-03-11T00:03:58.924Z,14.70
2019-03-11T00:06:25.346Z,14.70
2019-03-11T00:08:51.555Z,14.60
2019-03-11T00:11:17.789Z,14.60
2019-03-11T00:13:44.028Z,14.50
2019-03-11T00:16:11.939Z,14.50
2019-03-11T00:18:38.344Z,14.50
2019-03-11T00:21:05.829Z,14.50
2019-03-11T00:23:32.261Z,14.50
2019-03-11T00:25:58.642Z,14.60
2019-03-11T00:28:25.886Z,14.60
2019-03-11T00:30:52.177Z,14.70
2019-03-11T00:33:18.813Z,14.80
2019-03-11T00:35:45.250Z,14.90
2019-03-11T00:38:11.500Z,14.90
2019-03-11T00:40:37.863Z,15.00
2019-03-11T00:43:04.122Z,15.00
2019-03-11T00:45:30.364Z,15.00
2019-03-11T00:48:01.920Z,15.10
2019-03-11T00:50:23.624Z,15.10
2019-03-11T00:52:49.810Z,15.00
2019-03-11T00:55:16.051Z,15.10
2019-03-11T00:57:42.547Z,15.10
2019-03-11T01:00:08.936Z,15.10
2019-03-11T01:02:35.377Z,15.10
2019-03-11T01:05:01.816Z,15.00
2019-03-11T01:07:28.231Z,15.00
2019-03-11T01:09:55.913Z,14.90
2019-03-11T01:12:22.318Z,14.90
2019-03-11T01:14:48.540Z,14.80
2019-03-11T01:17:14.772Z,14.80
2019-03-11T01:19:41.264Z,14.70
2019-03-11T01:22:07.631Z,14.70
2019-03-11T01:24:33.866Z,14.70
2019-03-11T01:27:00.083Z,14.70
2019-03-11T01:29:26.338Z,14.70
2019-03-11T01:31:53.360Z,14.60
2019-03-11T01:34:19.641Z,14.60
2019-03-11T01:36:46.033Z,14.60
2019-03-11T01:39:12.270Z,14.50
2019-03-11T01:41:39.319Z,14.50
2019-03-11T01:44:05.549Z,14.50
2019-03-11T01:46:31.767Z,14.50
2019-03-11T01:48:59.631Z,14.40
2019-03-11T01:51:27.555Z,14.40
2019-03-11T01:53:53.935Z,14.40
2019-03-11T01:56:20.179Z,14.40
2019-03-11T01:58:46.374Z,14.40
2019-03-11T02:01:12.596Z,14.40
2019-03-11T02:03:38.858Z,14.30
2019-03-11T02:06:05.131Z,14.30
2019-03-11T02:08:31.505Z,14.20
2019-03-11T02:10:57.942Z,14.10
2019-03-11T02:13:24.176Z,14.20
2019-03-11T02:15:50.379Z,14.10
2019-03-11T02:18:16.651Z,14.10
2019-03-11T02:20:43.048Z,14.00
2019-03-11T02:23:09.274Z,14.10
2019-03-11T02:25:35.536Z,14.00
2019-03-11T02:28:01.757Z,14.00
2019-03-11T02:30:28.199Z,14.00
2019-03-11T02:32:54.618Z,14.00
2019-03-11T02:35:21.645Z,14.00
2019-03-11T02:37:48.141Z,14.00
2019-03-11T02:40:14.742Z,14.00
2019-03-11T02:42:40.971Z,14.00
2019-03-11T02:45:07.397Z,14.00
2019-03-11T02:47:33.597Z,13.80
2019-03-11T02:49:59.843Z,13.80
2019-03-11T02:52:26.063Z,13.80
2019-03-11T02:54:53.117Z,13.80
2019-03-11T02:57:21.026Z,13.80
2019-03-11T02:59:47.429Z,13.80
2019-03-11T03:02:15.222Z,13.80
2019-03-11T03:04:41.764Z,13.80
2019-03-11T03:07:08.182Z,13.70
2019-03-11T03:09:34.625Z,13.70
2019-03-11T03:12:01.844Z,13.70
2019-03-11T03:14:28.299Z,13.70
2019-03-11T03:16:54.512Z,13.70
2019-03-11T03:19:20.937Z,13.80
2019-03-11T03:21:47.351Z,13.80
2019-03-11T03:24:13.634Z,13.70
2019-03-11T03:26:40.056Z,13.70
2019-03-11T03:29:06.513Z,13.70
2019-03-11T03:31:33.146Z,13.70
2019-03-11T03:33:59.578Z,13.70
2019-03-11T03:36:25.833Z,13.80
2019-03-11T03:38:52.240Z,13.80
2019-03-11T03:41:18.622Z,13.80
2019-03-11T03:43:45.076Z,13.80
2019-03-11T03:46:18.586Z,13.80
2019-03-11T03:48:38.070Z,13.80
2019-03-11T03:51:04.378Z,13.80
2019-03-11T03:53:30.800Z,13.80
2019-03-11T03:55:57.261Z,13.80
2019-03-11T03:58:23.693Z,13.80
2019-03-11T04:00:50.332Z,13.80
2019-03-11T04:03:16.752Z,13.90
2019-03-11T04:05:44.224Z,13.90
2019-03-11T04:08:10.414Z,13.90
2019-03-11T04:10:38.302Z,13.80
2019-03-11T04:13:04.744Z,13.90
2019-03-11T04:15:31.165Z,13.90
2019-03-11T04:17:57.616Z,13.90
2019-03-11T04:20:24.017Z,13.90
2019-03-11T04:22:50.489Z,13.90
2019-03-11T04:25:16.877Z,13.90
2019-03-11T04:27:43.157Z,13.90
2019-03-11T04:30:09.781Z,13.80
2019-03-11T04:32:36.217Z,13.80
2019-03-11T04:35:02.648Z,13.70
2019-03-11T04:37:29.055Z,13.70
2019-03-11T04:39:55.252Z,13.70
2019-03-11T04:42:21.502Z,13.70
2019-03-11T04:44:47.742Z,13.70
2019-03-11T04:47:14.139Z,13.70
2019-03-11T04:49:40.413Z,13.70
2019-03-11T04:52:06.817Z,13.70
2019-03-11T04:54:34.518Z,13.70
2019-03-11T04:57:00.936Z,13.60
2019-03-11T04:59:27.136Z,13.70
2019-03-11T05:01:55.061Z,13.70
2019-03-11T05:04:21.451Z,13.70
2019-03-11T05:06:47.644Z,13.70
2019-03-11T05:09:13.919Z,13.60
2019-03-11T05:11:40.339Z,13.70
2019-03-11T05:14:06.763Z,13.70
2019-03-11T05:16:33.039Z,13.70
2019-03-11T05:18:59.239Z,13.60
2019-03-11T05:21:25.490Z,13.60
2019-03-11T05:23:51.855Z,13.60
2019-03-11T05:26:18.113Z,13.50
2019-03-11T05:28:45.990Z,13.60
2019-03-11T05:31:12.230Z,13.50
2019-03-11T05:33:38.435Z,13.60
2019-03-11T05:36:04.662Z,13.60
2019-03-11T05:38:31.108Z,13.60
2019-03-11T05:40:58.159Z,13.60
2019-03-11T05:43:25.229Z,13.60
2019-03-11T05:45:51.493Z,13.60
2019-03-11T05:48:17.853Z,13.60
2019-03-11T05:50:44.067Z,13.50
2019-03-11T05:53:10.329Z,13.60
2019-03-11T05:55:36.777Z,13.50
2019-03-11T05:58:03.181Z,13.50
2019-03-11T06:00:29.602Z,13.50
2019-03-11T06:02:55.859Z,13.50
2019-03-11T06:05:22.248Z,13.40
2019-03-11T06:07:48.470Z,13.40
2019-03-11T06:10:14.770Z,13.30
2019-03-11T06:12:41.164Z,13.40
2019-03-11T06:15:07.591Z,13.40
2019-03-11T06:17:33.880Z,13.40
2019-03-11T06:20:00.357Z,13.50
2019-03-11T06:22:26.744Z,13.50
2019-03-11T06:24:53.112Z,13.50
2019-03-11T06:27:21.000Z,13.40
2019-03-11T06:29:47.404Z,13.30
2019-03-11T06:32:13.651Z,13.30
2019-03-11T06:34:39.882Z,13.30
2019-03-11T06:37:06.096Z,13.20
2019-03-11T06:39:32.339Z,13.20
2019-03-11T06:41:59.591Z,13.20
2019-03-11T06:44:25.811Z,13.20
2019-03-11T06:46:52.280Z,13.30
2019-03-11T06:49:18.704Z,13.30
2019-03-11T06:51:45.156Z,13.30
2019-03-11T06:54:11.527Z,13.30
2019-03-11T06:56:39.403Z,13.30
2019-03-11T06:59:07.312Z,13.30
2019-03-11T07:01:33.698Z,13.30
2019-03-11T07:03:59.939Z,13.40
2019-03-11T07:06:26.172Z,13.40
2019-03-11T07:08:52.406Z,13.40
2019-03-11T07:11:18.838Z,13.30
2019-03-11T07:13:45.057Z,13.30
2019-03-11T07:16:11.492Z,13.30
2019-03-11T07:18:37.912Z,13.30
2019-03-11T07:21:06.027Z,13.30
2019-03-11T07:23:32.429Z,13.30
2019-03-11T07:25:58.664Z,13.30
2019-03-11T07:28:24.897Z,13.30
2019-03-11T07:30:51.135Z,13.30
2019-03-11T07:33:17.557Z,13.30
2019-03-11T07:35:43.767Z,13.30
2019-03-11T07:38:10.813Z,13.20
2019-03-11T07:40:37.041Z,13.20
2019-03-11T07:43:03.264Z,13.20
2019-03-11T07:45:29.511Z,13.20
2019-03-11T07:47:55.938Z,13.10
2019-03-11T07:50:22.163Z,13.10
2019-03-11T07:52:48.637Z,13.10
2019-03-11T07:55:15.065Z,13.10
2019-03-11T07:57:41.436Z,13.20
2019-03-11T08:00:07.631Z,13.20
2019-03-11T08:02:33.900Z,13.30
2019-03-11T08:05:00.397Z,13.20
2019-03-11T08:07:27.640Z,13.20
2019-03-11T08:09:53.014Z,13.20
2019-03-11T08:12:20.067Z,13.20
2019-03-11T08:14:46.270Z,13.20
2019-03-11T08:17:12.500Z,13.20
2019-03-11T08:19:38.762Z,13.20
2019-03-11T08:22:04.975Z,13.10
2019-03-11T08:24:31.195Z,13.10
2019-03-11T08:26:59.103Z,13.20
2019-03-11T08:29:25.572Z,13.20
2019-03-11T08:31:51.753Z,13.20
2019-03-11T08:34:18.167Z,13.10
2019-03-11T08:36:44.394Z,13.10
2019-03-11T08:39:10.627Z,13.10
2019-03-11T08:41:36.882Z,13.10
2019-03-11T08:44:03.367Z,13.10
2019-03-11T08:46:29.718Z,13.10
2019-03-11T08:48:55.920Z,13.10
2019-03-11T08:51:22.176Z,13.00
2019-03-11T08:53:48.471Z,13.00
2019-03-11T08:56:14.835Z,13.00
2019-03-11T08:58:41.056Z,13.00
2019-03-11T09:01:07.279Z,13.00
2019-03-11T09:03:33.504Z,13.10
2019-03-11T09:05:59.747Z,13.00
2019-03-11T09:08:27.610Z,13.00
2019-03-11T09:10:54.055Z,13.00
2019-03-11T09:13:20.272Z,12.90
2019-03-11T09:15:46.742Z,12.90
2019-03-11T09:18:13.119Z,12.90
2019-03-11T09:20:39.365Z,12.80
2019-03-11T09:23:05.627Z,12.80
2019-03-11T09:25:32.038Z,12.80
2019-03-11T09:27:58.274Z,12.90
2019-03-11T09:30:24.692Z,12.90
2019-03-11T09:32:50.905Z,13.00
2019-03-11T09:35:17.131Z,12.90
2019-03-11T09:37:43.620Z,12.80
2019-03-11T09:40:10.000Z,12.80
2019-03-11T09:42:36.234Z,12.80
2019-03-11T09:45:02.487Z,12.90
2019-03-11T09:47:29.142Z,12.80
2019-03-11T09:49:55.775Z,12.90
2019-03-11T09:52:22.170Z,12.90
2019-03-11T09:54:48.438Z,12.90
2019-03-11T09:57:14.841Z,12.80
2019-03-11T09:59:41.101Z,12.80
2019-03-11T10:02:07.489Z,12.80
2019-03-11T10:04:33.919Z,12.70
2019-03-11T10:07:01.818Z,12.80
2019-03-11T10:09:28.218Z,12.80
2019-03-11T10:11:54.696Z,12.90
2019-03-11T10:14:21.099Z,12.90
2019-03-11T10:16:48.160Z,12.80
2019-03-11T10:19:14.575Z,12.80
2019-03-11T10:21:41.041Z,12.80
2019-03-11T10:24:07.464Z,12.80
2019-03-11T10:26:33.905Z,12.90
2019-03-11T10:29:00.313Z,12.90
2019-03-11T10:31:26.552Z,13.00
2019-03-11T10:33:52.943Z,13.00
2019-03-11T10:36:19.205Z,13.00
2019-03-11T10:38:45.675Z,13.00
2019-03-11T10:41:12.069Z,13.00
2019-03-11T10:43:38.278Z,13.00
2019-03-11T10:46:04.522Z,13.00
2019-03-11T10:48:37.159Z,13.00
2019-03-11T10:50:58.903Z,13.00
2019-03-11T10:53:25.247Z,12.90
2019-03-11T10:55:51.671Z,12.90
2019-03-11T10:58:17.923Z,12.90
2019-03-11T11:00:44.969Z,13.00
2019-03-11T11:03:11.391Z,13.00
2019-03-11T11:05:39.239Z,13.10
2019-03-11T11:08:05.500Z,13.10
2019-03-11T11:10:31.908Z,13.10
2019-03-11T11:12:58.137Z,13.00
2019-03-11T11:15:24.355Z,13.00
2019-03-11T11:17:50.604Z,12.90
2019-03-11T11:20:16.803Z,12.90
2019-03-11T11:22:43.301Z,12.90
2019-03-11T11:25:09.694Z,12.80
2019-03-11T11:27:37.563Z,12.80
2019-03-11T11:30:03.826Z,12.80
2019-03-11T11:32:30.215Z,12.80
2019-03-11T11:34:56.479Z,12.70
2019-03-11T11:37:22.930Z,12.70
2019-03-11T11:39:49.343Z,12.80
2019-03-11T11:42:15.778Z,12.80
2019-03-11T11:44:42.184Z,12.80
2019-03-11T11:47:08.459Z,12.80
2019-03-11T11:49:34.835Z,12.80
2019-03-11T11:52:01.065Z,12.80
2019-03-11T11:54:27.338Z,12.90
2019-03-11T11:56:53.731Z,13.00
2019-03-11T11:59:21.600Z,13.00
2019-03-11T12:01:49.436Z,13.10
2019-03-11T12:04:15.887Z,13.00
2019-03-11T12:06:42.124Z,13.10
2019-03-11T12:09:08.391Z,13.00
2019-03-11T12:11:34.791Z,13.00
2019-03-11T12:14:02.653Z,13.00
2019-03-11T12:16:28.888Z,13.00
2019-03-11T12:18:55.146Z,12.90
2019-03-11T12:21:21.523Z,12.90
2019-03-11T12:23:47.819Z,12.90
2019-03-11T12:26:14.210Z,12.90
2019-03-11T12:28:40.633Z,12.80
2019-03-11T12:31:06.832Z,12.80
2019-03-11T12:33:33.138Z,12.80
2019-03-11T12:35:59.565Z,12.80
2019-03-11T12:38:28.616Z,12.80
2019-03-11T12:40:52.377Z,12.80
2019-03-11T12:43:18.668Z,12.80
2019-03-11T12:45:45.034Z,12.70
2019-03-11T12:48:11.300Z,12.60
2019-03-11T12:50:37.507Z,12.60
2019-03-11T12:53:03.705Z,12.60
2019-03-11T12:55:29.968Z,12.70
2019-03-11T12:57:56.435Z,12.70
2019-03-11T13:00:22.819Z,12.70
2019-03-11T13:02:49.032Z,12.70
2019-03-11T13:05:15.272Z,12.70
2019-03-11T13:07:41.763Z,12.80
2019-03-11T13:10:08.180Z,12.80
2019-03-11T13:12:34.581Z,12.70
2019-03-11T13:15:00.868Z,12.70
2019-03-11T13:17:27.248Z,12.80
2019-03-11T13:19:53.717Z,12.80
2019-03-11T13:22:20.354Z,12.80
2019-03-11T13:24:46.770Z,12.70
2019-03-11T13:27:13.220Z,12.70
2019-03-11T13:29:39.612Z,12.70
2019-03-11T13:32:05.840Z,12.70
2019-03-11T13:34:33.726Z,12.60
2019-03-11T13:37:00.134Z,12.60
2019-03-11T13:39:26.613Z,12.70
2019-03-11T13:41:53.243Z,12.70
2019-03-11T13:44:19.449Z,12.70
2019-03-11T13:46:45.679Z,12.70
2019-03-11T13:49:11.918Z,12.70
2019-03-11T13:51:38.336Z,12.70
2019-03-11T13:54:05.006Z,12.70
2019-03-11T13:56:31.412Z,12.60
2019-03-11T13:58:59.937Z,12.60
2019-03-11T14:01:26.291Z,12.60
2019-03-11T14:03:52.548Z,12.60
2019-03-11T14:06:18.771Z,12.60
2019-03-11T14:08:46.670Z,12.60
2019-03-11T14:11:12.929Z,12.60
2019-03-11T14:13:39.349Z,12.60
2019-03-11T14:16:05.774Z,12.60
2019-03-11T14:18:32.172Z,12.50
2019-03-11T14:20:58.407Z,12.50
2019-03-11T14:23:24.620Z,12.60
2019-03-11T14:25:50.845Z,12.60
2019-03-11T14:28:17.079Z,12.60
2019-03-11T14:30:44.972Z,12.60
2019-03-11T14:33:11.377Z,12.60
2019-03-11T14:35:39.251Z,12.60
2019-03-11T14:38:06.312Z,12.70
2019-03-11T14:40:32.719Z,12.70
2019-03-11T14:42:58.935Z,12.70
2019-03-11T14:45:25.176Z,12.70
2019-03-11T14:47:51.437Z,12.70
2019-03-11T14:50:17.891Z,12.70
2019-03-11T14:52:44.259Z,12.70
2019-03-11T14:55:10.542Z,12.70
2019-03-11T14:57:36.943Z,12.70
2019-03-11T15:00:03.202Z,12.70
2019-03-11T15:02:29.579Z,12.70
2019-03-11T15:04:56.069Z,12.70
2019-03-11T15:07:22.468Z,12.70
2019-03-11T15:09:51.611Z,12.70
2019-03-11T15:12:15.135Z,12.70
2019-03-11T15:14:41.551Z,12.70
2019-03-11T15:17:08.611Z,12.70
2019-03-11T15:19:34.836Z,12.70
2019-03-11T15:22:01.096Z,12.70
2019-03-11T15:24:27.479Z,12.70
2019-03-11T15:26:55.335Z,12.60
2019-03-11T15:29:21.829Z,12.60
2019-03-11T15:31:48.251Z,12.60
2019-03-11T15:34:14.857Z,12.60
2019-03-11T15:36:41.091Z,12.50
2019-03-11T15:39:08.795Z,12.60
2019-03-11T15:41:35.172Z,12.60
2019-03-11T15:44:01.661Z,12.60
2019-03-11T15:46:38.648Z,12.60
2019-03-11T15:48:54.476Z,12.60
2019-03-11T15:51:20.752Z,12.70
2019-03-11T15:53:47.132Z,12.60
2019-03-11T15:56:13.365Z,12.70
2019-03-11T15:58:39.595Z,12.60
2019-03-11T16:01:05.873Z,12.60
2019-03-11T16:03:36.160Z,12.60
2019-03-11T16:05:58.736Z,12.60
2019-03-11T16:08:25.148Z,12.60
2019-03-11T16:10:51.569Z,12.50
2019-03-11T16:13:17.855Z,12.60
2019-03-11T16:15:44.059Z,12.60
2019-03-11T16:18:10.509Z,12.50
2019-03-11T16:20:36.905Z,12.60
2019-03-11T16:23:03.328Z,12.60
2019-03-11T16:25:29.765Z,12.70
2019-03-11T16:27:56.195Z,12.60
2019-03-11T16:30:22.616Z,12.60
2019-03-11T16:32:58.466Z,12.60
2019-03-11T16:35:15.303Z,12.50
2019-03-11T16:37:41.957Z,12.50
2019-03-11T16:40:08.320Z,12.50
2019-03-11T16:42:34.586Z,12.50
2019-03-11T16:45:00.817Z,12.60
2019-03-11T16:47:27.024Z,12.60
2019-03-11T16:49:53.264Z,12.60
2019-03-11T16:52:19.504Z,12.60
2019-03-11T16:54:45.699Z,12.50
2019-03-11T16:57:11.937Z,12.50
2019-03-11T16:59:38.172Z,12.50
2019-03-11T17:02:05.232Z,12.50
2019-03-11T17:04:31.461Z,12.50
2019-03-11T17:06:57.867Z,12.50
2019-03-11T17:09:24.100Z,12.50
2019-03-11T17:11:50.334Z,12.40
2019-03-11T17:14:18.220Z,12.40
2019-03-11T17:16:44.640Z,12.40
2019-03-11T17:19:11.924Z,12.40
2019-03-11T17:21:38.377Z,12.40
2019-03-11T17:24:04.754Z,12.40
2019-03-11T17:26:32.594Z,12.40
2019-03-11T17:28:58.830Z,12.40
2019-03-11T17:31:25.112Z,12.30
2019-03-11T17:33:51.506Z,12.30
2019-03-11T17:36:17.774Z,12.40
2019-03-11T17:38:44.179Z,12.30
2019-03-11T17:41:10.604Z,12.30
2019-03-11T17:43:36.820Z,12.30
2019-03-11T17:46:03.075Z,12.40
2019-03-11T17:48:29.289Z,12.40
2019-03-11T17:50:55.493Z,12.40
2019-03-11T17:53:21.778Z,12.40
2019-03-11T17:55:48.176Z,12.40
2019-03-11T17:58:14.392Z,12.50
2019-03-11T18:00:40.611Z,12.40
2019-03-11T18:03:06.862Z,12.40
2019-03-11T18:05:33.116Z,12.40
2019-03-11T18:07:59.551Z,12.40
2019-03-11T18:10:26.198Z,12.40
2019-03-11T18:12:52.627Z,12.40
2019-03-11T18:15:18.800Z,12.50
2019-03-11T18:17:45.053Z,12.50
2019-03-11T18:20:11.342Z,12.50
2019-03-11T18:22:37.746Z,12.50
2019-03-11T18:25:04.139Z,12.50
2019-03-11T18:27:30.354Z,12.50
2019-03-11T18:29:56.841Z,12.50
2019-03-11T18:32:23.261Z,12.50
2019-03-11T18:34:49.683Z,12.50
2019-03-11T18:37:16.098Z,12.40
2019-03-11T18:39:42.334Z,12.50
2019-03-11T18:42:08.604Z,12.40
2019-03-11T18:44:34.981Z,12.40
2019-03-11T18:47:01.238Z,12.40
2019-03-11T18:49:27.665Z,12.40
2019-03-11T18:51:54.758Z,12.50
2019-03-11T18:54:21.155Z,12.50
2019-03-11T18:56:47.564Z,12.40
2019-03-11T18:59:13.775Z,12.40
2019-03-11T19:01:40.019Z,12.40
2019-03-11T19:04:07.904Z,12.50
2019-03-11T19:06:34.139Z,12.50
2019-03-11T19:09:00.591Z,12.60
2019-03-11T19:11:26.999Z,12.60
2019-03-11T19:13:53.252Z,12.70
2019-03-11T19:16:19.675Z,12.70
2019-03-11T19:18:46.086Z,12.70
2019-03-11T19:21:12.352Z,12.70
2019-03-11T19:23:38.826Z,12.70
2019-03-11T19:26:05.253Z,12.70
2019-03-11T19:28:31.844Z,12.70
2019-03-11T19:30:58.628Z,12.70
2019-03-11T19:33:24.872Z,12.70
2019-03-11T19:35:51.131Z,12.80
2019-03-11T19:38:17.569Z,12.90
2019-03-11T19:40:44.241Z,12.80
2019-03-11T19:43:10.488Z,12.80
2019-03-11T19:45:36.827Z,12.80
2019-03-11T19:48:03.053Z,12.80
2019-03-11T19:50:29.569Z,12.90
2019-03-11T19:52:59.061Z,12.90
2019-03-11T19:55:22.431Z,12.90
2019-03-11T19:57:48.866Z,12.80
2019-03-11T20:00:15.254Z,12.70
2019-03-11T20:02:41.721Z,12.70
2019-03-11T20:05:08.157Z,12.70
2019-03-11T20:07:34.575Z,12.70
2019-03-11T20:10:00.982Z,12.80
2019-03-11T20:12:27.256Z,12.80
2019-03-11T20:14:53.658Z,12.80
2019-03-11T20:17:20.447Z,12.80
2019-03-11T20:19:46.707Z,12.80
2019-03-11T20:22:13.199Z,12.80
2019-03-11T20:24:40.729Z,12.80
2019-03-11T20:27:07.003Z,12.80
2019-03-11T20:29:34.028Z,12.80
2019-03-11T20:31:59.683Z,12.90
2019-03-11T20:34:26.175Z,12.90
2019-03-11T20:36:52.592Z,12.90
2019-03-11T20:39:19.048Z,12.90
2019-03-11T20:41:45.412Z,12.90
2019-03-11T20:44:11.828Z,12.90
2019-03-11T20:46:38.096Z,13.00
2019-03-11T20:49:04.524Z,13.00
2019-03-11T20:51:30.776Z,13.00
2019-03-11T20:53:57.167Z,12.90
2019-03-11T20:56:23.441Z,12.90
2019-03-11T20:58:49.807Z,12.90
2019-03-11T21:01:16.067Z,12.90
2019-03-11T21:03:42.272Z,12.80
2019-03-11T21:06:08.759Z,12.80
2019-03-11T21:08:35.202Z,12.80
2019-03-11T21:13:33.082Z,12.80
2019-03-11T21:15:59.468Z,12.80
2019-03-11T21:18:25.796Z,12.80
2019-03-11T21:21:04.177Z,12.70
2019-03-11T21:23:18.645Z,12.70
2019-03-11T21:25:45.841Z,12.70
2019-03-11T21:28:12.301Z,12.70
2019-03-11T21:30:38.792Z,12.70
2019-03-11T21:33:05.117Z,12.70
2019-03-11T21:35:31.590Z,12.80
2019-03-11T21:37:57.960Z,12.80
2019-03-11T21:40:25.912Z,12.80
2019-03-11T21:42:52.350Z,12.80
2019-03-11T21:45:18.855Z,12.90
2019-03-11T21:47:45.423Z,12.90
2019-03-11T21:50:11.864Z,12.80
2019-03-11T21:52:38.202Z,12.80
2019-03-11T21:55:04.469Z,12.90
2019-03-11T21:57:30.934Z,12.90
2019-03-11T21:59:57.339Z,12.90
2019-03-11T22:02:23.734Z,12.90
2019-03-11T22:04:49.962Z,13.00
2019-03-11T22:07:16.208Z,13.00
2019-03-11T22:09:42.643Z,13.00
2019-03-11T22:12:10.539Z,13.00
2019-03-11T22:14:35.548Z,13.00
2019-03-11T22:17:01.907Z,13.00
2019-03-11T22:19:28.163Z,13.00
2019-03-11T22:21:54.420Z,13.10
2019-03-11T22:24:20.836Z,13.10
2019-03-11T22:26:47.268Z,13.20
2019-03-11T22:29:13.658Z,13.20
2019-03-11T22:31:39.939Z,13.30
2019-03-11T22:34:06.342Z,13.30
2019-03-11T22:36:32.547Z,13.30
2019-03-11T22:38:58.798Z,13.30
2019-03-11T22:41:26.703Z,13.30
2019-03-11T22:43:53.139Z,13.30
2019-03-11T22:46:19.583Z,13.30
2019-03-11T22:48:45.979Z,13.30
2019-03-11T22:51:12.172Z,13.30
2019-03-11T22:53:38.468Z,13.20
2019-03-11T22:56:04.839Z,13.20
2019-03-11T22:58:31.121Z,13.20
2019-03-11T23:00:57.495Z,13.20
2019-03-11T23:03:23.730Z,13.20
2019-03-11T23:05:57.774Z,13.20
2019-03-11T23:08:16.400Z,13.20
2019-03-11T23:10:42.624Z,13.20
2019-03-11T23:13:08.856Z,13.30
2019-03-11T23:15:35.177Z,13.30
2019-03-11T23:18:01.515Z,13.30
2019-03-11T23:20:27.975Z,13.40
2019-03-11T23:22:54.396Z,13.40
2019-03-11T23:25:20.845Z,13.40
2019-03-11T23:27:47.254Z,13.40
2019-03-11T23:30:13.507Z,13.40
2019-03-11T23:32:39.931Z,13.40
2019-03-11T23:35:06.975Z,13.30
2019-03-11T23:37:33.423Z,13.30
2019-03-11T23:39:59.884Z,13.20
2019-03-11T23:42:26.267Z,13.30
2019-03-11T23:44:53.955Z,13.30
2019-03-11T23:47:20.374Z,13.30
2019-03-11T23:49:46.624Z,13.30
2019-03-11T23:52:13.026Z,13.30
2019-03-11T23:54:39.292Z,13.30
2019-03-11T23:57:05.700Z,13.30
2019-03-11T23:59:32.151Z,13.30
